FIN572 EVRA-EFHK
Flight info
| Callsign | FIN572 |
|---|---|
| Flight time | N/A |
| Altitude | 29000 |
| Route | SOKVA DCT ANAMA DCT KEMET DCT KEXLE DCT BEKNA DCT INTOR |
| Aircraft | E190/M-SDE3GILORVW/S |
Departure
| Time | 2026-05-04 16:43 |
|---|---|
| Airport | Riga International Airport (EVRA) |
Arrival
| Time | N/A |
|---|---|
| Airport | Helsinki Vantaa Airport (EFHK) |
| Time | Latitude | Longitude | Altitude | Speed | Heading |
|---|---|---|---|---|---|
| 2026-05-04 16:16 | 56.92698 | 23.97676 | 43 ft | 0 kts | 276° |
| 2026-05-04 16:34 | 56.92686 | 23.97873 | 41 ft | 0 kts | 276° |
| 2026-05-04 16:35 | 56.92688 | 23.97842 | 43 ft | 0 kts | 276° |
| 2026-05-04 16:40 | 56.92689 | 23.97816 | 43 ft | 5 kts | 276° |
| 2026-05-04 16:40 | 56.92783 | 23.97777 | 42 ft | 13 kts | 5° |
| 2026-05-04 16:41 | 56.92943 | 23.97724 | 43 ft | 12 kts | 278° |
| 2026-05-04 16:41 | 56.92956 | 23.97419 | 43 ft | 0 kts | 275° |
| 2026-05-04 16:42 | 56.92912 | 23.97206 | 43 ft | 12 kts | 195° |
| 2026-05-04 16:43 | 56.92818 | 23.97193 | 44 ft | 8 kts | 185° |
| 2026-05-04 16:43 | 56.91697 | 23.96964 | 206 ft | 158 kts | 190° |
| 2026-05-04 16:43 | 56.90438 | 23.96701 | 905 ft | 197 kts | 190° |
| 2026-05-04 16:44 | 56.84824 | 23.99249 | 3635 ft | 255 kts | 151° |
| 2026-05-04 16:45 | 56.82104 | 24.04080 | 3361 ft | 284 kts | 127° |
| 2026-05-04 16:46 | 56.80035 | 24.14216 | 3290 ft | 288 kts | 106° |
| 2026-05-04 16:46 | 56.79424 | 24.21495 | 3643 ft | 294 kts | 97° |
| 2026-05-04 16:47 | 56.79128 | 24.28975 | 4147 ft | 300 kts | 83° |
| 2026-05-04 16:47 | 56.81320 | 24.35038 | 4656 ft | 290 kts | 23° |
| 2026-05-04 16:48 | 56.87036 | 24.37456 | 6001 ft | 287 kts | 5° |
| 2026-05-04 16:48 | 56.88988 | 24.38254 | 6533 ft | 289 kts | 5° |
| 2026-05-04 16:49 | 56.92815 | 24.38087 | 7585 ft | 270 kts | 329° |
| 2026-05-04 16:49 | 56.96062 | 24.34781 | 8692 ft | 268 kts | 319° |
| 2026-05-04 16:50 | 56.98631 | 24.31548 | 9619 ft | 270 kts | 317° |
| 2026-05-04 16:50 | 57.01587 | 24.27137 | 10661 ft | 285 kts | 312° |
| 2026-05-04 16:51 | 57.05169 | 24.21331 | 11929 ft | 300 kts | 311° |
| 2026-05-04 16:51 | 57.06733 | 24.18782 | 12471 ft | 302 kts | 311° |
| 2026-05-04 16:51 | 57.09998 | 24.13760 | 13561 ft | 317 kts | 324° |
| 2026-05-04 16:52 | 57.13759 | 24.12860 | 14457 ft | 352 kts | 5° |
| 2026-05-04 16:52 | 57.16132 | 24.14170 | 15033 ft | 361 kts | 13° |
| 2026-05-04 16:53 | 57.20754 | 24.18236 | 16212 ft | 372 kts | 21° |
| 2026-05-04 16:53 | 57.27730 | 24.24984 | 18075 ft | 387 kts | 22° |
| 2026-05-04 16:54 | 57.30124 | 24.27313 | 18621 ft | 390 kts | 22° |
| 2026-05-04 16:55 | 57.40275 | 24.33924 | 20896 ft | 389 kts | 2° |
| 2026-05-04 16:55 | 57.45640 | 24.34820 | 22113 ft | 388 kts | 356° |
| 2026-05-04 16:56 | 57.51025 | 24.35429 | 23358 ft | 392 kts | 355° |
| 2026-05-04 16:56 | 57.59245 | 24.36345 | 25029 ft | 396 kts | 355° |
| 2026-05-04 16:57 | 57.62000 | 24.36655 | 25591 ft | 397 kts | 355° |
| 2026-05-04 16:57 | 57.67438 | 24.36774 | 26742 ft | 389 kts | 349° |
| 2026-05-04 16:58 | 57.75296 | 24.34763 | 28439 ft | 380 kts | 340° |
| 2026-05-04 16:58 | 57.77934 | 24.33895 | 28670 ft | 389 kts | 340° |
| 2026-05-04 16:59 | 57.83430 | 24.32096 | 28838 ft | 413 kts | 341° |
| 2026-05-04 17:00 | 57.95276 | 24.31817 | 28781 ft | 441 kts | 2° |
| 2026-05-04 17:01 | 58.10395 | 24.36944 | 28780 ft | 442 kts | 3° |
| 2026-05-04 17:02 | 58.22518 | 24.41148 | 28774 ft | 443 kts | 3° |
| 2026-05-04 17:03 | 58.31575 | 24.44306 | 28761 ft | 443 kts | 4° |
| 2026-05-04 17:03 | 58.40671 | 24.47491 | 28775 ft | 444 kts | 4° |
| 2026-05-04 17:04 | 58.52812 | 24.51775 | 28754 ft | 445 kts | 4° |
| 2026-05-04 17:05 | 58.64976 | 24.56096 | 28781 ft | 441 kts | 4° |
| 2026-05-04 17:06 | 58.74036 | 24.59333 | 28729 ft | 442 kts | 4° |
| 2026-05-04 17:07 | 58.82090 | 24.62224 | 28739 ft | 442 kts | 4° |
| 2026-05-04 17:07 | 58.89115 | 24.64754 | 28726 ft | 442 kts | 4° |
| 2026-05-04 17:08 | 58.98191 | 24.68040 | 28745 ft | 444 kts | 4° |
| 2026-05-04 17:09 | 59.04260 | 24.70247 | 28714 ft | 443 kts | 4° |
| 2026-05-04 17:09 | 59.10268 | 24.72440 | 28723 ft | 443 kts | 4° |
| 2026-05-04 17:10 | 59.23374 | 24.77251 | 28717 ft | 443 kts | 4° |